sensor_id;sensor_type;location;lat;lon;timestamp;temperature;humidity
30150;DHT22;16962;48.646;9.026;2022-11-10T00:02:11;9.70;99.90
30150;DHT22;16962;48.646;9.026;2022-11-10T00:05:01;9.70;99.90
30150;DHT22;16962;48.646;9.026;2022-11-10T00:07:48;9.70;99.90
30150;DHT22;16962;48.646;9.026;2022-11-10T00:10:41;9.70;99.90
30150;DHT22;16962;48.646;9.026;2022-11-10T00:13:48;9.70;99.90
30150;DHT22;16962;48.646;9.026;2022-11-10T00:16:53;9.60;99.90
30150;DHT22;16962;48.646;9.026;2022-11-10T00:19:50;9.60;99.90
30150;DHT22;16962;48.646;9.026;2022-11-10T00:22:39;9.60;99.90
30150;DHT22;16962;48.646;9.026;2022-11-10T00:25:26;9.50;99.90
30150;DHT22;16962;48.646;9.026;2022-11-10T00:28:13;9.50;99.90
30150;DHT22;16962;48.646;9.026;2022-11-10T00:31:04;9.50;99.90
30150;DHT22;16962;48.646;9.026;2022-11-10T00:34:07;9.40;99.90
30150;DHT22;16962;48.646;9.026;2022-11-10T00:36:59;9.30;99.90
30150;DHT22;16962;48.646;9.026;2022-11-10T00:39:46;9.20;99.90
30150;DHT22;16962;48.646;9.026;2022-11-10T00:42:33;9.10;99.90
30150;DHT22;16962;48.646;9.026;2022-11-10T00:45:23;8.90;99.90
30150;DHT22;16962;48.646;9.026;2022-11-10T00:48:12;8.80;99.90
30150;DHT22;16962;48.646;9.026;2022-11-10T00:51:02;8.60;99.90
30150;DHT22;16962;48.646;9.026;2022-11-10T00:53:50;8.60;99.90
30150;DHT22;16962;48.646;9.026;2022-11-10T00:56:37;8.60;99.90
30150;DHT22;16962;48.646;9.026;2022-11-10T00:59:26;8.70;99.90
30150;DHT22;16962;48.646;9.026;2022-11-10T01:02:16;8.70;99.90
30150;DHT22;16962;48.646;9.026;2022-11-10T01:05:03;8.70;99.90
30150;DHT22;16962;48.646;9.026;2022-11-10T01:07:50;8.60;99.90
30150;DHT22;16962;48.646;9.026;2022-11-10T01:10:38;8.50;99.90
30150;DHT22;16962;48.646;9.026;2022-11-10T01:13:29;8.40;99.90
30150;DHT22;16962;48.646;9.026;2022-11-10T01:16:28;8.40;99.90
30150;DHT22;16962;48.646;9.026;2022-11-10T01:19:16;8.40;99.90
30150;DHT22;16962;48.646;9.026;2022-11-10T01:22:06;8.30;99.90
30150;DHT22;16962;48.646;9.026;2022-11-10T01:24:53;8.30;99.90
30150;DHT22;16962;48.646;9.026;2022-11-10T01:27:40;8.40;99.90
30150;DHT22;16962;48.646;9.026;2022-11-10T01:30:27;8.50;99.90
30150;DHT22;16962;48.646;9.026;2022-11-10T01:33:14;8.60;99.90
30150;DHT22;16962;48.646;9.026;2022-11-10T01:36:04;8.60;99.90
30150;DHT22;16962;48.646;9.026;2022-11-10T01:38:51;8.70;99.90
30150;DHT22;16962;48.646;9.026;2022-11-10T01:41:39;8.70;99.90
30150;DHT22;16962;48.646;9.026;2022-11-10T01:44:27;8.60;99.90
30150;DHT22;16962;48.646;9.026;2022-11-10T01:47:16;8.50;99.90
30150;DHT22;16962;48.646;9.026;2022-11-10T01:50:03;8.40;99.90
30150;DHT22;16962;48.646;9.026;2022-11-10T01:52:56;8.30;99.90
30150;DHT22;16962;48.646;9.026;2022-11-10T01:55:46;8.40;99.90
30150;DHT22;16962;48.646;9.026;2022-11-10T01:58:36;8.50;99.90
30150;DHT22;16962;48.646;9.026;2022-11-10T02:01:26;8.60;99.90
30150;DHT22;16962;48.646;9.026;2022-11-10T02:04:16;8.60;99.90
30150;DHT22;16962;48.646;9.026;2022-11-10T02:07:04;8.70;99.90
30150;DHT22;16962;48.646;9.026;2022-11-10T02:09:52;8.80;99.90
30150;DHT22;16962;48.646;9.026;2022-11-10T02:12:39;8.80;99.90
30150;DHT22;16962;48.646;9.026;2022-11-10T02:15:26;8.80;99.90
30150;DHT22;16962;48.646;9.026;2022-11-10T02:18:17;8.70;99.90
30150;DHT22;16962;48.646;9.026;2022-11-10T02:21:05;8.60;99.90
30150;DHT22;16962;48.646;9.026;2022-11-10T02:23:55;8.50;99.90
30150;DHT22;16962;48.646;9.026;2022-11-10T02:26:47;8.40;99.90
30150;DHT22;16962;48.646;9.026;2022-11-10T02:29:38;8.40;99.90
30150;DHT22;16962;48.646;9.026;2022-11-10T02:32:27;8.30;99.90
30150;DHT22;16962;48.646;9.026;2022-11-10T02:35:14;8.20;99.90
30150;DHT22;16962;48.646;9.026;2022-11-10T02:38:02;8.00;99.90
30150;DHT22;16962;48.646;9.026;2022-11-10T02:40:49;7.80;99.90
30150;DHT22;16962;48.646;9.026;2022-11-10T02:43:39;7.80;99.90
30150;DHT22;16962;48.646;9.026;2022-11-10T02:46:26;7.80;99.90
30150;DHT22;16962;48.646;9.026;2022-11-10T02:49:13;7.60;99.90
30150;DHT22;16962;48.646;9.026;2022-11-10T02:52:00;7.50;99.90
30150;DHT22;16962;48.646;9.026;2022-11-10T02:54:49;7.60;99.90
30150;DHT22;16962;48.646;9.026;2022-11-10T02:57:37;7.60;99.90
30150;DHT22;16962;48.646;9.026;2022-11-10T03:00:25;7.70;99.90
30150;DHT22;16962;48.646;9.026;2022-11-10T03:03:13;7.70;99.90
30150;DHT22;16962;48.646;9.026;2022-11-10T03:06:00;7.70;99.90
30150;DHT22;16962;48.646;9.026;2022-11-10T03:08:47;7.70;99.90
30150;DHT22;16962;48.646;9.026;2022-11-10T03:11:37;7.60;99.90
30150;DHT22;16962;48.646;9.026;2022-11-10T03:14:27;7.60;99.90
30150;DHT22;16962;48.646;9.026;2022-11-10T03:17:14;7.50;99.90
30150;DHT22;16962;48.646;9.026;2022-11-10T03:20:04;7.60;99.90
30150;DHT22;16962;48.646;9.026;2022-11-10T03:22:51;7.60;99.90
30150;DHT22;16962;48.646;9.026;2022-11-10T03:25:38;7.60;99.90
30150;DHT22;16962;48.646;9.026;2022-11-10T03:28:26;7.50;99.90
30150;DHT22;16962;48.646;9.026;2022-11-10T03:31:13;7.30;99.90
30150;DHT22;16962;48.646;9.026;2022-11-10T03:34:14;7.30;99.90
30150;DHT22;16962;48.646;9.026;2022-11-10T03:37:01;7.30;99.90
30150;DHT22;16962;48.646;9.026;2022-11-10T03:39:48;7.20;99.90
30150;DHT22;16962;48.646;9.026;2022-11-10T03:42:44;7.00;99.90
30150;DHT22;16962;48.646;9.026;2022-11-10T03:45:31;6.80;99.90
30150;DHT22;16962;48.646;9.026;2022-11-10T03:48:18;6.60;99.90
30150;DHT22;16962;48.646;9.026;2022-11-10T03:51:14;6.50;99.90
30150;DHT22;16962;48.646;9.026;2022-11-10T03:54:01;6.50;99.90
30150;DHT22;16962;48.646;9.026;2022-11-10T03:56:48;6.50;99.90
30150;DHT22;16962;48.646;9.026;2022-11-10T03:59:35;6.50;99.90
30150;DHT22;16962;48.646;9.026;2022-11-10T04:02:23;6.30;99.90
30150;DHT22;16962;48.646;9.026;2022-11-10T04:05:10;6.10;99.90
30150;DHT22;16962;48.646;9.026;2022-11-10T04:08:16;6.00;99.90
30150;DHT22;16962;48.646;9.026;2022-11-10T04:11:22;5.90;99.90
30150;DHT22;16962;48.646;9.026;2022-11-10T04:14:27;5.80;99.90
30150;DHT22;16962;48.646;9.026;2022-11-10T04:17:33;5.80;99.90
30150;DHT22;16962;48.646;9.026;2022-11-10T04:20:22;6.10;99.90
30150;DHT22;16962;48.646;9.026;2022-11-10T04:23:10;6.20;99.90
30150;DHT22;16962;48.646;9.026;2022-11-10T04:26:18;6.30;99.90
30150;DHT22;16962;48.646;9.026;2022-11-10T04:29:17;6.30;99.90
30150;DHT22;16962;48.646;9.026;2022-11-10T04:32:04;6.20;99.90
30150;DHT22;16962;48.646;9.026;2022-11-10T04:34:52;6.10;99.90
30150;DHT22;16962;48.646;9.026;2022-11-10T04:37:39;6.10;99.90
30150;DHT22;16962;48.646;9.026;2022-11-10T04:40:26;6.20;99.90
30150;DHT22;16962;48.646;9.026;2022-11-10T04:43:13;6.10;99.90
30150;DHT22;16962;48.646;9.026;2022-11-10T04:46:01;6.00;99.90
30150;DHT22;16962;48.646;9.026;2022-11-10T04:48:49;6.00;99.90
30150;DHT22;16962;48.646;9.026;2022-11-10T04:51:41;6.00;99.90
30150;DHT22;16962;48.646;9.026;2022-11-10T04:54:28;6.00;99.90
30150;DHT22;16962;48.646;9.026;2022-11-10T04:57:15;6.00;99.90
30150;DHT22;16962;48.646;9.026;2022-11-10T05:00:05;5.90;99.90
30150;DHT22;16962;48.646;9.026;2022-11-10T05:03:00;5.90;99.90
30150;DHT22;16962;48.646;9.026;2022-11-10T05:05:47;5.70;99.90
30150;DHT22;16962;48.646;9.026;2022-11-10T05:08:36;5.80;99.90
30150;DHT22;16962;48.646;9.026;2022-11-10T05:11:23;5.80;99.90
30150;DHT22;16962;48.646;9.026;2022-11-10T05:14:10;6.00;99.90
30150;DHT22;16962;48.646;9.026;2022-11-10T05:16:58;6.10;99.90
30150;DHT22;16962;48.646;9.026;2022-11-10T05:19:45;6.10;99.90
30150;DHT22;16962;48.646;9.026;2022-11-10T05:22:33;6.10;99.90
30150;DHT22;16962;48.646;9.026;2022-11-10T05:25:20;5.90;99.90
30150;DHT22;16962;48.646;9.026;2022-11-10T05:48:51;5.70;99.90
30150;DHT22;16962;48.646;9.026;2022-11-10T05:51:38;5.70;99.90
30150;DHT22;16962;48.646;9.026;2022-11-10T05:54:27;5.90;99.90
30150;DHT22;16962;48.646;9.026;2022-11-10T05:57:15;5.90;99.90
30150;DHT22;16962;48.646;9.026;2022-11-10T06:00:06;5.90;99.90
30150;DHT22;16962;48.646;9.026;2022-11-10T06:05:45;6.00;99.90
30150;DHT22;16962;48.646;9.026;2022-11-10T06:08:32;5.80;99.90
30150;DHT22;16962;48.646;9.026;2022-11-10T06:11:20;5.60;99.90
30150;DHT22;16962;48.646;9.026;2022-11-10T06:14:07;5.60;99.90
30150;DHT22;16962;48.646;9.026;2022-11-10T06:16:54;5.50;99.90
30150;DHT22;16962;48.646;9.026;2022-11-10T06:19:41;5.60;99.90
30150;DHT22;16962;48.646;9.026;2022-11-10T06:22:28;5.50;99.90
30150;DHT22;16962;48.646;9.026;2022-11-10T06:25:15;5.80;99.90
30150;DHT22;16962;48.646;9.026;2022-11-10T06:28:03;5.80;99.90
30150;DHT22;16962;48.646;9.026;2022-11-10T06:30:58;5.70;99.90
30150;DHT22;16962;48.646;9.026;2022-11-10T06:33:45;5.60;99.90
30150;DHT22;16962;48.646;9.026;2022-11-10T06:36:35;5.70;99.90
30150;DHT22;16962;48.646;9.026;2022-11-10T06:39:28;5.60;99.90
30150;DHT22;16962;48.646;9.026;2022-11-10T06:42:15;5.60;99.90
30150;DHT22;16962;48.646;9.026;2022-11-10T06:45:05;5.60;99.90
30150;DHT22;16962;48.646;9.026;2022-11-10T06:50:50;5.60;99.90
30150;DHT22;16962;48.646;9.026;2022-11-10T06:53:37;5.70;99.90
30150;DHT22;16962;48.646;9.026;2022-11-10T06:56:24;5.70;99.90
30150;DHT22;16962;48.646;9.026;2022-11-10T06:59:11;5.90;99.90
30150;DHT22;16962;48.646;9.026;2022-11-10T07:01:58;6.00;99.90
30150;DHT22;16962;48.646;9.026;2022-11-10T07:04:46;6.10;99.90
30150;DHT22;16962;48.646;9.026;2022-11-10T07:07:37;6.20;99.90
30150;DHT22;16962;48.646;9.026;2022-11-10T07:10:24;6.60;99.90
30150;DHT22;16962;48.646;9.026;2022-11-10T07:13:14;6.90;99.90
30150;DHT22;16962;48.646;9.026;2022-11-10T07:16:08;7.10;99.90
30150;DHT22;16962;48.646;9.026;2022-11-10T07:18:56;7.40;99.90
30150;DHT22;16962;48.646;9.026;2022-11-10T07:21:45;7.30;99.90
30150;DHT22;16962;48.646;9.026;2022-11-10T07:24:33;7.30;99.90
30150;DHT22;16962;48.646;9.026;2022-11-10T07:27:20;7.70;99.90
30150;DHT22;16962;48.646;9.026;2022-11-10T07:30:09;8.20;99.90
30150;DHT22;16962;48.646;9.026;2022-11-10T07:33:05;8.60;99.90
30150;DHT22;16962;48.646;9.026;2022-11-10T07:35:57;8.20;99.90
30150;DHT22;16962;48.646;9.026;2022-11-10T07:38:46;7.90;99.90
30150;DHT22;16962;48.646;9.026;2022-11-10T07:41:33;7.90;99.90
30150;DHT22;16962;48.646;9.026;2022-11-10T07:44:21;7.90;99.90
30150;DHT22;16962;48.646;9.026;2022-11-10T07:47:40;7.70;99.90
30150;DHT22;16962;48.646;9.026;2022-11-10T07:58:27;7.60;99.90
30150;DHT22;16962;48.646;9.026;2022-11-10T08:05:35;8.00;99.90
30150;DHT22;16962;48.646;9.026;2022-11-10T08:08:26;8.20;99.90
30150;DHT22;16962;48.646;9.026;2022-11-10T08:15:56;8.40;99.90
30150;DHT22;16962;48.646;9.026;2022-11-10T08:18:57;8.50;99.90
30150;DHT22;16962;48.646;9.026;2022-11-10T08:22:04;8.60;99.90
30150;DHT22;16962;48.646;9.026;2022-11-10T08:25:16;8.80;99.90
30150;DHT22;16962;48.646;9.026;2022-11-10T08:31:41;10.20;99.90
30150;DHT22;16962;48.646;9.026;2022-11-10T08:35:00;10.80;99.90
30150;DHT22;16962;48.646;9.026;2022-11-10T08:37:49;10.90;99.90
30150;DHT22;16962;48.646;9.026;2022-11-10T08:40:40;11.00;99.90
30150;DHT22;16962;48.646;9.026;2022-11-10T08:43:27;11.30;99.90
30150;DHT22;16962;48.646;9.026;2022-11-10T08:46:15;11.70;99.90
30150;DHT22;16962;48.646;9.026;2022-11-10T08:49:02;11.90;99.90
30150;DHT22;16962;48.646;9.026;2022-11-10T08:51:52;11.80;99.90
30150;DHT22;16962;48.646;9.026;2022-11-10T08:54:39;11.70;99.90
30150;DHT22;16962;48.646;9.026;2022-11-10T08:57:28;11.70;99.90
30150;DHT22;16962;48.646;9.026;2022-11-10T09:00:31;11.90;99.90
30150;DHT22;16962;48.646;9.026;2022-11-10T09:03:32;12.30;99.90
30150;DHT22;16962;48.646;9.026;2022-11-10T09:06:19;12.50;99.90
30150;DHT22;16962;48.646;9.026;2022-11-10T09:21:17;13.90;99.90
30150;DHT22;16962;48.646;9.026;2022-11-10T09:24:15;15.20;1.00
30150;DHT22;16962;48.646;9.026;2022-11-10T09:35:16;15.70;99.90
30150;DHT22;16962;48.646;9.026;2022-11-10T09:50:35;15.70;99.90
30150;DHT22;16962;48.646;9.026;2022-11-10T09:56:52;16.30;99.90
30150;DHT22;16962;48.646;9.026;2022-11-10T10:23:53;18.10;99.90
30150;DHT22;16962;48.646;9.026;2022-11-10T10:27:03;17.40;99.90
30150;DHT22;16962;48.646;9.026;2022-11-10T10:29:51;17.50;99.90
30150;DHT22;16962;48.646;9.026;2022-11-10T10:32:39;16.90;99.90
30150;DHT22;16962;48.646;9.026;2022-11-10T10:35:27;16.40;99.90
30150;DHT22;16962;48.646;9.026;2022-11-10T10:38:24;16.30;99.90
30150;DHT22;16962;48.646;9.026;2022-11-10T10:41:23;16.30;99.90
30150;DHT22;16962;48.646;9.026;2022-11-10T10:44:15;16.90;99.90
30150;DHT22;16962;48.646;9.026;2022-11-10T10:47:05;16.60;99.90
30150;DHT22;16962;48.646;9.026;2022-11-10T10:53:15;17.20;99.90
30150;DHT22;16962;48.646;9.026;2022-11-10T10:56:22;17.20;99.90
30150;DHT22;16962;48.646;9.026;2022-11-10T10:59:20;17.90;99.90
30150;DHT22;16962;48.646;9.026;2022-11-10T11:02:24;18.80;99.90
30150;DHT22;16962;48.646;9.026;2022-11-10T11:05:18;19.20;98.70
30150;DHT22;16962;48.646;9.026;2022-11-10T11:08:16;19.30;93.20
30150;DHT22;16962;48.646;9.026;2022-11-10T11:11:08;18.60;87.80
30150;DHT22;16962;48.646;9.026;2022-11-10T11:17:21;18.20;89.00
30150;DHT22;16962;48.646;9.026;2022-11-10T11:20:18;18.00;91.40
30150;DHT22;16962;48.646;9.026;2022-11-10T11:26:22;17.40;95.00
30150;DHT22;16962;48.646;9.026;2022-11-10T11:29:21;17.80;91.80
30150;DHT22;16962;48.646;9.026;2022-11-10T11:35:18;17.70;73.60
30150;DHT22;16962;48.646;9.026;2022-11-10T11:48:23;17.90;66.70
30150;DHT22;16962;48.646;9.026;2022-11-10T12:07:57;19.30;41.90
30150;DHT22;16962;48.646;9.026;2022-11-10T12:11:25;20.10;32.40
30150;DHT22;16962;48.646;9.026;2022-11-10T12:14:45;19.90;25.60
30150;DHT22;16962;48.646;9.026;2022-11-10T12:20:57;19.30;29.10
30150;DHT22;16962;48.646;9.026;2022-11-10T12:30:26;18.60;25.30
30150;DHT22;16962;48.646;9.026;2022-11-10T12:44:35;21.00;19.80
30150;DHT22;16962;48.646;9.026;2022-11-10T12:47:33;20.20;19.60
30150;DHT22;16962;48.646;9.026;2022-11-10T12:54:44;18.90;23.60
30150;DHT22;16962;48.646;9.026;2022-11-10T12:57:32;18.50;19.30
30150;DHT22;16962;48.646;9.026;2022-11-10T13:00:24;18.10;19.10
30150;DHT22;16962;48.646;9.026;2022-11-10T13:03:50;18.70;17.30
30150;DHT22;16962;48.646;9.026;2022-11-10T13:06:55;19.70;15.40
30150;DHT22;16962;48.646;9.026;2022-11-10T13:09:43;20.20;13.60
30150;DHT22;16962;48.646;9.026;2022-11-10T13:12:33;20.80;13.50
30150;DHT22;16962;48.646;9.026;2022-11-10T13:21:16;20.10;1.00
30150;DHT22;16962;48.646;9.026;2022-11-10T13:27:02;20.00;1.00
30150;DHT22;16962;48.646;9.026;2022-11-10T13:29:56;20.60;1.00
30150;DHT22;16962;48.646;9.026;2022-11-10T13:32:43;21.40;1.00
30150;DHT22;16962;48.646;9.026;2022-11-10T13:38:35;21.80;1.00
30150;DHT22;16962;48.646;9.026;2022-11-10T13:41:45;21.90;1.00
30150;DHT22;16962;48.646;9.026;2022-11-10T13:44:37;21.60;1.00
30150;DHT22;16962;48.646;9.026;2022-11-10T13:47:59;20.30;1.00
30150;DHT22;16962;48.646;9.026;2022-11-10T14:06:50;18.90;1.00
30150;DHT22;16962;48.646;9.026;2022-11-10T14:10:02;19.00;1.00
30150;DHT22;16962;48.646;9.026;2022-11-10T14:12:56;19.60;1.00
30150;DHT22;16962;48.646;9.026;2022-11-10T14:16:01;20.20;1.00
30150;DHT22;16962;48.646;9.026;2022-11-10T14:45:38;21.60;1.00
30150;DHT22;16962;48.646;9.026;2022-11-10T14:49:28;21.00;1.00
30150;DHT22;16962;48.646;9.026;2022-11-10T14:56:35;19.60;1.00
30150;DHT22;16962;48.646;9.026;2022-11-10T15:03:50;18.30;1.00
30150;DHT22;16962;48.646;9.026;2022-11-10T15:06:54;17.10;1.00
30150;DHT22;16962;48.646;9.026;2022-11-10T15:13:53;16.00;1.00
30150;DHT22;16962;48.646;9.026;2022-11-10T15:22:04;15.40;8.20
30150;DHT22;16962;48.646;9.026;2022-11-10T15:25:45;15.30;4.70
30150;DHT22;16962;48.646;9.026;2022-11-10T15:29:02;15.50;1.00
30150;DHT22;16962;48.646;9.026;2022-11-10T15:32:16;15.30;4.70
30150;DHT22;16962;48.646;9.026;2022-11-10T15:35:20;14.60;15.40
30150;DHT22;16962;48.646;9.026;2022-11-10T15:41:21;13.00;65.30
30150;DHT22;16962;48.646;9.026;2022-11-10T15:47:09;11.90;99.90
30150;DHT22;16962;48.646;9.026;2022-11-10T15:49:59;11.50;99.90
30150;DHT22;16962;48.646;9.026;2022-11-10T15:52:46;11.10;99.90
30150;DHT22;16962;48.646;9.026;2022-11-10T15:55:36;10.70;99.90
30150;DHT22;16962;48.646;9.026;2022-11-10T15:58:23;10.30;99.90
30150;DHT22;16962;48.646;9.026;2022-11-10T16:01:15;10.00;99.90
30150;DHT22;16962;48.646;9.026;2022-11-10T16:04:02;9.70;99.90
30150;DHT22;16962;48.646;9.026;2022-11-10T16:06:54;9.50;99.90
30150;DHT22;16962;48.646;9.026;2022-11-10T16:09:43;9.30;99.90
30150;DHT22;16962;48.646;9.026;2022-11-10T16:12:30;9.10;1.00
30150;DHT22;16962;48.646;9.026;2022-11-10T16:15:19;8.90;1.00
30150;DHT22;16962;48.646;9.026;2022-11-10T16:18:16;8.80;1.00
30150;DHT22;16962;48.646;9.026;2022-11-10T16:21:14;8.60;1.00
30150;DHT22;16962;48.646;9.026;2022-11-10T16:24:04;8.40;1.00
30150;DHT22;16962;48.646;9.026;2022-11-10T16:26:57;8.40;99.90
30150;DHT22;16962;48.646;9.026;2022-11-10T16:29:44;8.30;99.90
30150;DHT22;16962;48.646;9.026;2022-11-10T16:32:40;8.20;99.90
30150;DHT22;16962;48.646;9.026;2022-11-10T16:35:27;8.20;99.90
30150;DHT22;16962;48.646;9.026;2022-11-10T16:41:11;7.90;1.00
30150;DHT22;16962;48.646;9.026;2022-11-10T16:44:07;7.80;1.00
30150;DHT22;16962;48.646;9.026;2022-11-10T16:46:56;7.80;1.00
30150;DHT22;16962;48.646;9.026;2022-11-10T16:49:44;7.90;96.80
30150;DHT22;16962;48.646;9.026;2022-11-10T16:52:31;7.90;99.90
30150;DHT22;16962;48.646;9.026;2022-11-10T16:55:19;7.80;99.90
30150;DHT22;16962;48.646;9.026;2022-11-10T16:58:09;7.90;99.90
30150;DHT22;16962;48.646;9.026;2022-11-10T17:01:00;8.10;99.90
30150;DHT22;16962;48.646;9.026;2022-11-10T17:03:52;8.10;1.00
30150;DHT22;16962;48.646;9.026;2022-11-10T17:06:53;8.00;1.00
30150;DHT22;16962;48.646;9.026;2022-11-10T17:09:41;7.80;1.00
30150;DHT22;16962;48.646;9.026;2022-11-10T17:12:29;7.70;1.00
30150;DHT22;16962;48.646;9.026;2022-11-10T17:15:16;7.60;89.00
30150;DHT22;16962;48.646;9.026;2022-11-10T17:18:05;7.40;99.90
30150;DHT22;16962;48.646;9.026;2022-11-10T17:20:55;7.30;99.90
30150;DHT22;16962;48.646;9.026;2022-11-10T17:23:43;7.20;71.90
30150;DHT22;16962;48.646;9.026;2022-11-10T17:26:30;7.00;99.90
30150;DHT22;16962;48.646;9.026;2022-11-10T17:29:19;7.00;34.50
30150;DHT22;16962;48.646;9.026;2022-11-10T17:32:07;7.00;99.90
30150;DHT22;16962;48.646;9.026;2022-11-10T17:34:55;7.00;1.00
30150;DHT22;16962;48.646;9.026;2022-11-10T17:37:46;6.90;99.90
30150;DHT22;16962;48.646;9.026;2022-11-10T17:40:39;6.90;99.90
30150;DHT22;16962;48.646;9.026;2022-11-10T17:43:27;6.80;99.90
30150;DHT22;16962;48.646;9.026;2022-11-10T17:46:17;6.70;46.40
30150;DHT22;16962;48.646;9.026;2022-11-10T17:49:40;6.60;69.60
30150;DHT22;16962;48.646;9.026;2022-11-10T17:52:31;6.60;1.00
30150;DHT22;16962;48.646;9.026;2022-11-10T17:59:35;6.40;99.90
30150;DHT22;16962;48.646;9.026;2022-11-10T18:02:25;6.30;1.00
30150;DHT22;16962;48.646;9.026;2022-11-10T18:05:34;6.30;1.00
30150;DHT22;16962;48.646;9.026;2022-11-10T18:12:32;6.40;99.90
30150;DHT22;16962;48.646;9.026;2022-11-10T18:15:20;6.50;99.90
30150;DHT22;16962;48.646;9.026;2022-11-10T18:18:16;6.40;99.90
30150;DHT22;16962;48.646;9.026;2022-11-10T18:21:05;6.50;99.90
30150;DHT22;16962;48.646;9.026;2022-11-10T18:23:52;6.50;99.90
30150;DHT22;16962;48.646;9.026;2022-11-10T18:26:40;6.50;99.90
30150;DHT22;16962;48.646;9.026;2022-11-10T18:29:31;6.40;99.90
30150;DHT22;16962;48.646;9.026;2022-11-10T18:32:18;6.40;99.90
30150;DHT22;16962;48.646;9.026;2022-11-10T18:35:06;6.40;99.90
30150;DHT22;16962;48.646;9.026;2022-11-10T18:37:53;6.30;99.90
30150;DHT22;16962;48.646;9.026;2022-11-10T18:40:42;6.10;99.90
30150;DHT22;16962;48.646;9.026;2022-11-10T18:43:30;6.10;99.90
30150;DHT22;16962;48.646;9.026;2022-11-10T18:46:17;6.10;99.90
30150;DHT22;16962;48.646;9.026;2022-11-10T18:49:05;6.10;99.90
30150;DHT22;16962;48.646;9.026;2022-11-10T18:51:52;6.10;99.90
30150;DHT22;16962;48.646;9.026;2022-11-10T18:54:40;6.00;99.90
30150;DHT22;16962;48.646;9.026;2022-11-10T18:57:27;6.00;99.90
30150;DHT22;16962;48.646;9.026;2022-11-10T19:00:15;5.90;99.90
30150;DHT22;16962;48.646;9.026;2022-11-10T19:03:04;5.90;99.90
30150;DHT22;16962;48.646;9.026;2022-11-10T19:05:56;5.90;99.90
30150;DHT22;16962;48.646;9.026;2022-11-10T19:08:45;5.80;99.90
30150;DHT22;16962;48.646;9.026;2022-11-10T19:11:33;5.90;99.90
30150;DHT22;16962;48.646;9.026;2022-11-10T19:14:21;5.90;99.90
30150;DHT22;16962;48.646;9.026;2022-11-10T19:17:08;6.00;99.90
30150;DHT22;16962;48.646;9.026;2022-11-10T19:19:56;6.20;99.90
30150;DHT22;16962;48.646;9.026;2022-11-10T19:22:47;6.20;99.90
30150;DHT22;16962;48.646;9.026;2022-11-10T19:25:36;6.10;99.90
30150;DHT22;16962;48.646;9.026;2022-11-10T19:28:24;6.10;99.90
30150;DHT22;16962;48.646;9.026;2022-11-10T19:31:17;6.20;99.90
30150;DHT22;16962;48.646;9.026;2022-11-10T19:34:04;6.20;99.90
30150;DHT22;16962;48.646;9.026;2022-11-10T19:36:51;6.20;99.90
30150;DHT22;16962;48.646;9.026;2022-11-10T19:39:40;6.00;99.90
30150;DHT22;16962;48.646;9.026;2022-11-10T19:42:28;5.90;99.90
30150;DHT22;16962;48.646;9.026;2022-11-10T19:45:15;5.80;99.90
30150;DHT22;16962;48.646;9.026;2022-11-10T19:48:03;5.70;99.90
30150;DHT22;16962;48.646;9.026;2022-11-10T19:50:54;5.60;99.90
30150;DHT22;16962;48.646;9.026;2022-11-10T19:53:46;5.60;99.90
30150;DHT22;16962;48.646;9.026;2022-11-10T19:56:37;5.50;99.90
30150;DHT22;16962;48.646;9.026;2022-11-10T19:59:27;5.50;99.90
30150;DHT22;16962;48.646;9.026;2022-11-10T20:02:14;5.50;99.90
30150;DHT22;16962;48.646;9.026;2022-11-10T20:05:05;5.60;99.90
30150;DHT22;16962;48.646;9.026;2022-11-10T20:08:07;5.70;99.90
30150;DHT22;16962;48.646;9.026;2022-11-10T20:11:10;5.70;99.90
30150;DHT22;16962;48.646;9.026;2022-11-10T20:13:58;5.70;99.90
30150;DHT22;16962;48.646;9.026;2022-11-10T20:16:46;5.60;99.90
30150;DHT22;16962;48.646;9.026;2022-11-10T20:19:34;5.60;99.90
30150;DHT22;16962;48.646;9.026;2022-11-10T20:22:34;5.60;99.90
30150;DHT22;16962;48.646;9.026;2022-11-10T20:25:22;5.50;99.90
30150;DHT22;16962;48.646;9.026;2022-11-10T20:28:09;5.40;99.90
30150;DHT22;16962;48.646;9.026;2022-11-10T20:31:08;5.40;99.90
30150;DHT22;16962;48.646;9.026;2022-11-10T20:33:56;5.40;99.90
30150;DHT22;16962;48.646;9.026;2022-11-10T20:36:44;5.30;99.90
30150;DHT22;16962;48.646;9.026;2022-11-10T20:39:32;5.20;99.90
30150;DHT22;16962;48.646;9.026;2022-11-10T20:42:20;5.20;99.90
30150;DHT22;16962;48.646;9.026;2022-11-10T20:45:10;5.10;99.90
30150;DHT22;16962;48.646;9.026;2022-11-10T20:47:58;5.00;99.90
30150;DHT22;16962;48.646;9.026;2022-11-10T20:50:45;5.00;99.90
30150;DHT22;16962;48.646;9.026;2022-11-10T20:53:35;5.00;99.90
30150;DHT22;16962;48.646;9.026;2022-11-10T20:56:25;5.10;99.90
30150;DHT22;16962;48.646;9.026;2022-11-10T20:59:16;5.20;99.90
30150;DHT22;16962;48.646;9.026;2022-11-10T21:02:03;5.10;99.90
30150;DHT22;16962;48.646;9.026;2022-11-10T21:04:53;5.00;99.90
30150;DHT22;16962;48.646;9.026;2022-11-10T21:07:45;5.00;99.90
30150;DHT22;16962;48.646;9.026;2022-11-10T21:10:37;4.80;99.90
30150;DHT22;16962;48.646;9.026;2022-11-10T21:13:26;4.80;99.90
30150;DHT22;16962;48.646;9.026;2022-11-10T21:16:16;4.70;99.90
30150;DHT22;16962;48.646;9.026;2022-11-10T21:19:03;4.60;99.90
30150;DHT22;16962;48.646;9.026;2022-11-10T21:21:51;4.50;99.90
30150;DHT22;16962;48.646;9.026;2022-11-10T21:24:43;4.70;99.90
30150;DHT22;16962;48.646;9.026;2022-11-10T21:27:32;4.90;99.90
30150;DHT22;16962;48.646;9.026;2022-11-10T21:30:23;4.90;99.90
30150;DHT22;16962;48.646;9.026;2022-11-10T21:33:11;4.90;99.90
30150;DHT22;16962;48.646;9.026;2022-11-10T21:36:06;4.80;99.90
30150;DHT22;16962;48.646;9.026;2022-11-10T21:38:55;4.70;99.90
30150;DHT22;16962;48.646;9.026;2022-11-10T21:41:44;4.60;99.90
30150;DHT22;16962;48.646;9.026;2022-11-10T21:44:32;4.60;99.90
30150;DHT22;16962;48.646;9.026;2022-11-10T21:47:19;4.50;99.90
30150;DHT22;16962;48.646;9.026;2022-11-10T21:50:07;4.50;99.90
30150;DHT22;16962;48.646;9.026;2022-11-10T21:52:57;4.40;99.90
30150;DHT22;16962;48.646;9.026;2022-11-10T21:55:44;4.40;99.90
30150;DHT22;16962;48.646;9.026;2022-11-10T21:58:33;4.50;99.90
30150;DHT22;16962;48.646;9.026;2022-11-10T22:01:21;4.40;99.90
30150;DHT22;16962;48.646;9.026;2022-11-10T22:04:11;4.50;99.90
30150;DHT22;16962;48.646;9.026;2022-11-10T22:07:03;4.70;99.90
30150;DHT22;16962;48.646;9.026;2022-11-10T22:10:10;4.70;99.90
30150;DHT22;16962;48.646;9.026;2022-11-10T22:13:18;4.60;99.90
30150;DHT22;16962;48.646;9.026;2022-11-10T22:16:35;4.60;99.90
30150;DHT22;16962;48.646;9.026;2022-11-10T22:19:43;4.50;99.90
30150;DHT22;16962;48.646;9.026;2022-11-10T22:22:30;4.40;99.90
30150;DHT22;16962;48.646;9.026;2022-11-10T22:25:17;4.30;99.90
30150;DHT22;16962;48.646;9.026;2022-11-10T22:28:07;4.30;99.90
30150;DHT22;16962;48.646;9.026;2022-11-10T22:30:54;4.20;99.90
30150;DHT22;16962;48.646;9.026;2022-11-10T22:33:45;4.00;99.90
30150;DHT22;16962;48.646;9.026;2022-11-10T22:36:32;3.90;99.90
30150;DHT22;16962;48.646;9.026;2022-11-10T22:39:22;3.90;99.90
30150;DHT22;16962;48.646;9.026;2022-11-10T22:42:29;3.80;99.90
30150;DHT22;16962;48.646;9.026;2022-11-10T22:45:35;3.80;99.90